Detall de PIREP

Printer-friendly versionPDF version

[2013/03/23 08:01:00]
Flight IATA:CT1004
Pilot Number:012
Company ICAO:CAT
Aircraft Type:C750/F
PAX:3
Departing Airport: LEBL
Destination Airport: UDYZ
Alternate Airport:OITT
Online: VATSIM
Route:VERSO UL16 MHN UM603 EKI UG12 YAA UL614 BAG UT31 SIV UA4 ERZ UB374 INDUR
Flight Level:F490
No Slew and time accel
No pause
Crash detect
Detect pilot in Cockpit between each 30 and 45 minutes
08:01 Zero fuel Weight: 22632 Lbs, Fuel Weight: 9404 Lbs
08:01 VATSIM:LEBL 230730Z 02004KT 350V060 7000 FEW009 SCT015 12/10 Q1005 NOSIG
08:01 VATSIM:UDYZ 230730Z 27004MPS 9999 SCT040CB BKN100 16/02 Q1002 R09/010070 NOSIG
08:02 VOICE CATALONIAN / EASTER CHARTER
08:04 Parking Brakes off
08:10 Take-off
08:10 Take off Weight: 31898 Lbs
08:10 Wind: 018º @ 004 Knots Heading: 246º
08:10 POS N41º 17´ 07´´ E002º 05´ 00´´
08:10 Gear Up: 163 Knots
08:10 Flaps:3 at 163 Knots
08:11 Flaps:2 at 228 Knots
08:11 Flaps:0 at 232 Knots
08:25 Wind:243º@066 Knots Heading: 173º Ground Speed: 475 Knots Altitude 41856 ft
08:40 Wind:242º@058 Knots Heading: 087º Ground Speed: 542 Knots Altitude 46797 ft
08:53 TOC
08:53 Fuel Weight: 8156 Lb
08:55 Wind:256º@060 Knots Heading: 085º Ground Speed: 519 Knots Altitude 48884 ft
09:10 Wind:269º@063 Knots Heading: 086º Ground Speed: 550 Knots Altitude 48979 ft
09:25 Wind:279º@057 Knots Heading: 087º Ground Speed: 548 Knots Altitude 49019 ft
09:40 Wind:284º@053 Knots Heading: 089º Ground Speed: 542 Knots Altitude 49045 ft
09:55 Wind:291º@052 Knots Heading: 093º Ground Speed: 543 Knots Altitude 49025 ft
10:10 Wind:293º@055 Knots Heading: 076º Ground Speed: 537 Knots Altitude 48943 ft
10:25 Wind:297º@035 Knots Heading: 083º Ground Speed: 523 Knots Altitude 48933 ft
10:40 Wind:292º@042 Knots Heading: 096º Ground Speed: 536 Knots Altitude 48917 ft
10:55 Wind:270º@035 Knots Heading: 101º Ground Speed: 528 Knots Altitude 48756 ft
11:10 Wind:263º@024 Knots Heading: 095º Ground Speed: 519 Knots Altitude 48727 ft
11:25 Wind:263º@027 Knots Heading: 084º Ground Speed: 519 Knots Altitude 48713 ft
11:40 Wind:249º@025 Knots Heading: 091º Ground Speed: 519 Knots Altitude 48625 ft
11:41 TOD
11:41 Fuel Weight: 5655 Lb
11:55 Wind:196º@049 Knots Heading: 094º Ground Speed: 338 Knots Altitude 14911 ft
12:00 Flaps:2 at 204 Knots
12:00 Flaps:3 at 197 Knots
12:02 Gear Down: 171 Knots
12:02 Flaps:4 at 166 Knots
12:04 Flaps:5 at 148 Knots
12:05 TouchDown:Rate -386 ft/min Speed: 122 Knots
12:05 VATSIM:UDYZ 231130Z 28006G11MPS 3500 HZ SCT020CB BKN100 18/M02 Q0999 R09/010070 NOSIG
12:05 Land
12:05 Wind:279º@010 Knots
12:05 Heading: 089º
12:05 Flight Duration: 03:55
12:05 Landing Weight: 28037 Lbs
12:05 POS N40º 08´ 54´´ E044º 23´ 56´´
12:09 Parking brakes on
12:09 Block to Block Duration: 04:05
12:09 Final Fuel: 5370 Lbls
12:09 Spent Fuel: 4034 Lbls
12:09 Flight Length: 2000 NM
12:09 TOD Land Length: 146 NM

Exportar CSV

Powered by Drupal - Modified by Danger4k